Time;durP1;ratioP1;P1;durP2;ratioP2;P2;SDS_P1;SDS_P2;PMS_P1;PMS_P2;Temp;Humidity;BMP_temperature;BMP_pressure;BME280_temperature;BME280_humidity;BME280_pressure;Samples;Min_cycle;Max_cycle;Signal;HPM_P1;HPM_P2
2021/10/14 00:00:56;;;;;;;9.40;7.90;;;7.30;99.90;;;;;;5057355;28;20441;-88
2021/10/14 00:03:23;;;;;;;8.50;6.57;;;7.30;99.90;;;;;;5045035;28;20476;-88
2021/10/14 00:05:50;;;;;;;9.13;7.67;;;7.20;99.90;;;;;;5056194;28;20430;-88
2021/10/14 00:08:17;;;;;;;11.97;8.00;;;7.20;99.90;;;;;;5042202;28;20931;-88
2021/10/14 00:10:43;;;;;;;12.67;7.47;;;7.10;99.90;;;;;;5038842;28;20449;-89
2021/10/14 00:13:10;;;;;;;8.60;7.50;;;7.10;99.90;;;;;;5036955;28;20492;-89
2021/10/14 00:15:38;;;;;;;8.40;6.93;;;7.10;99.90;;;;;;5054494;28;20480;-88
2021/10/14 00:18:05;;;;;;;10.80;7.93;;;7.10;99.90;;;;;;5045718;28;20441;-89
2021/10/14 00:20:32;;;;;;;8.00;7.00;;;7.00;99.90;;;;;;5037454;28;20449;-89
2021/10/14 00:22:58;;;;;;;8.53;7.10;;;7.10;99.90;;;;;;5043473;28;20441;-88
2021/10/14 00:25:25;;;;;;;9.23;6.80;;;7.00;99.90;;;;;;5038260;28;20449;-87
2021/10/14 00:27:52;;;;;;;9.57;7.43;;;7.00;99.90;;;;;;5038394;28;20453;-88
2021/10/14 00:30:20;;;;;;;10.00;8.53;;;6.90;99.90;;;;;;5038942;28;20483;-87
2021/10/14 00:32:48;;;;;;;10.87;7.90;;;7.00;99.90;;;;;;5044929;28;20481;-87
2021/10/14 00:35:15;;;;;;;11.83;9.30;;;6.90;99.90;;;;;;5038819;28;20445;-87
2021/10/14 00:37:41;;;;;;;11.20;8.77;;;6.90;99.90;;;;;;5039887;28;20469;-88
2021/10/14 00:40:09;;;;;;;13.80;9.47;;;6.90;99.90;;;;;;5057691;28;20446;-87
2021/10/14 00:42:36;;;;;;;12.60;10.07;;;6.80;99.90;;;;;;5045459;28;20953;-88
2021/10/14 00:45:03;;;;;;;13.20;10.37;;;6.90;99.90;;;;;;5038177;28;20441;-87
2021/10/14 00:47:30;;;;;;;11.50;10.07;;;6.90;99.90;;;;;;5037948;28;20873;-88
2021/10/14 00:49:59;;;;;;;11.43;10.13;;;6.80;99.90;;;;;;5037609;28;20477;-87
2021/10/14 00:52:26;;;;;;;10.70;8.50;;;6.80;99.90;;;;;;5038200;28;20484;-88
2021/10/14 00:54:55;;;;;;;12.73;10.20;;;6.80;99.90;;;;;;5037595;28;20872;-88
2021/10/14 00:57:22;;;;;;;12.93;9.27;;;6.80;99.90;;;;;;5048741;28;20442;-86
2021/10/14 00:59:49;;;;;;;15.40;10.93;;;6.80;99.90;;;;;;5057075;28;20461;-86
2021/10/14 01:02:16;;;;;;;12.10;10.50;;;6.80;99.90;;;;;;5046275;28;20437;-88
2021/10/14 01:04:43;;;;;;;11.83;9.30;;;6.70;99.90;;;;;;5035691;28;20457;-88
2021/10/14 01:07:11;;;;;;;14.30;10.03;;;6.80;99.90;;;;;;5044906;28;20445;-89
2021/10/14 01:09:40;;;;;;;13.93;10.60;;;6.90;99.90;;;;;;5035681;28;20453;-88
2021/10/14 01:12:08;;;;;;;13.97;11.23;;;6.90;99.90;;;;;;5035916;28;20504;-89
2021/10/14 01:14:35;;;;;;;13.53;10.80;;;6.90;99.90;;;;;;5035681;28;20449;-88
2021/10/14 01:17:02;;;;;;;12.50;10.10;;;6.90;99.90;;;;;;5036707;28;20457;-89
2021/10/14 01:19:29;;;;;;;13.93;10.20;;;6.90;99.90;;;;;;5034749;28;20469;-89
2021/10/14 01:21:57;;;;;;;11.77;10.53;;;6.80;99.90;;;;;;5035376;28;20938;-88
2021/10/14 01:24:24;;;;;;;12.90;10.23;;;6.80;99.90;;;;;;5037258;28;20445;-88
2021/10/14 01:26:52;;;;;;;13.07;9.63;;;6.70;99.90;;;;;;5043929;28;20454;-89
2021/10/14 01:34:29;;;;;;;13.90;10.33;;;6.70;99.90;;;;;;1318320;26;20535;-90
2021/10/14 01:36:59;;;;;;;13.07;10.43;;;6.70;99.90;;;;;;5096720;28;20447;-90
2021/10/14 01:39:26;;;;;;;13.17;10.17;;;6.70;99.90;;;;;;5096141;28;20466;-90
2021/10/14 01:41:53;;;;;;;10.40;9.37;;;6.80;99.90;;;;;;5109549;28;20487;-90
2021/10/14 01:44:20;;;;;;;10.50;9.40;;;6.90;99.90;;;;;;5095770;28;20522;-91
2021/10/14 01:46:47;;;;;;;16.83;12.13;;;6.80;99.90;;;;;;5099717;28;20442;-90
2021/10/14 01:49:16;;;;;;;14.23;9.87;;;6.80;99.90;;;;;;5096002;28;20904;-90
2021/10/14 01:51:53;;;;;;;15.60;10.63;;;6.80;99.90;;;;;;5096204;28;20473;-90
2021/10/14 01:54:28;;;;;;;13.73;10.30;;;6.80;99.90;;;;;;5096305;28;20495;-90
2021/10/14 01:57:02;;;;;;;13.67;11.13;;;6.90;99.90;;;;;;5096000;28;20446;-90
2021/10/14 01:59:30;;;;;;;13.70;10.93;;;6.90;99.90;;;;;;5096270;28;20446;-90
2021/10/14 02:01:57;;;;;;;12.40;10.77;;;6.80;99.90;;;;;;5095901;28;20969;-90
2021/10/14 02:04:24;;;;;;;16.30;12.90;;;6.70;99.90;;;;;;5095850;28;20458;-90
2021/10/14 02:06:51;;;;;;;17.43;12.07;;;6.80;99.90;;;;;;5096090;28;20906;-90
2021/10/14 02:09:18;;;;;;;22.10;13.33;;;6.70;99.90;;;;;;5095571;28;20478;-90
2021/10/14 02:11:46;;;;;;;17.37;13.13;;;6.70;99.90;;;;;;5110726;28;20522;-90
2021/10/14 02:14:16;;;;;;;15.10;12.17;;;6.70;99.90;;;;;;5115215;28;20454;-90
2021/10/14 02:16:43;;;;;;;13.20;11.80;;;6.60;99.90;;;;;;5117369;28;20421;-89
2021/10/14 02:19:11;;;;;;;14.80;12.23;;;6.60;99.90;;;;;;5108089;28;20467;-90
2021/10/14 02:21:38;;;;;;;16.27;12.83;;;6.70;99.90;;;;;;5098305;28;20485;-90
2021/10/14 02:24:05;;;;;;;17.70;13.90;;;6.70;99.90;;;;;;5099024;28;20442;-90
2021/10/14 02:26:32;;;;;;;17.20;11.80;;;6.60;99.90;;;;;;5115554;28;20414;-91
2021/10/14 02:29:00;;;;;;;15.90;12.90;;;6.60;99.90;;;;;;5101117;28;20458;-90
2021/10/14 02:31:27;;;;;;;12.70;11.40;;;6.60;99.90;;;;;;5111326;28;20429;-90
2021/10/14 02:33:54;;;;;;;17.40;13.13;;;6.60;99.90;;;;;;5107445;28;20478;-88
2021/10/14 02:36:21;;;;;;;16.33;12.73;;;6.60;99.90;;;;;;5096708;28;20546;-91
2021/10/14 02:38:49;;;;;;;15.60;12.37;;;6.50;99.90;;;;;;5095641;28;20453;-88
2021/10/14 02:41:16;;;;;;;12.80;11.30;;;6.50;99.90;;;;;;5096461;28;20541;-88
2021/10/14 02:43:47;;;;;;;13.97;10.50;;;6.50;99.90;;;;;;5104158;28;20479;-88
2021/10/14 02:46:15;;;;;;;10.90;9.57;;;6.50;99.90;;;;;;5115092;28;20419;-90
2021/10/14 02:48:42;;;;;;;13.13;11.37;;;6.50;99.90;;;;;;5107485;28;20447;-89
2021/10/14 02:51:09;;;;;;;11.80;10.33;;;6.50;99.90;;;;;;5105578;28;20431;-89
2021/10/14 02:53:36;;;;;;;17.67;10.37;;;6.50;99.90;;;;;;5115695;28;20474;-88
2021/10/14 02:56:03;;;;;;;13.03;11.73;;;6.50;99.90;;;;;;5104642;28;20438;-89
2021/10/14 02:58:30;;;;;;;11.77;10.57;;;6.50;99.90;;;;;;5109665;28;20450;-88
2021/10/14 03:00:57;;;;;;;11.40;10.10;;;6.50;99.90;;;;;;5101430;28;20472;-89
2021/10/14 03:03:25;;;;;;;14.20;11.30;;;6.50;99.90;;;;;;5113660;28;20419;-89
2021/10/14 03:05:55;;;;;;;13.00;10.80;;;6.40;99.90;;;;;;5107504;28;20466;-89
2021/10/14 03:08:22;;;;;;;14.80;10.47;;;6.50;99.90;;;;;;5105973;28;20431;-89
2021/10/14 03:10:56;;;;;;;12.57;10.93;;;6.50;99.90;;;;;;5100652;28;20466;-89
2021/10/14 03:13:45;;;;;;;16.60;12.27;;;6.50;99.90;;;;;;5113625;28;20454;-92
2021/10/14 03:16:12;;;;;;;13.20;11.90;;;6.50;99.90;;;;;;5110042;28;20480;-89
2021/10/14 03:18:42;;;;;;;17.40;12.07;;;6.60;99.90;;;;;;5101038;28;20470;-89
2021/10/14 03:21:09;;;;;;;20.10;13.60;;;6.60;99.90;;;;;;5100803;28;20450;-89
2021/10/14 03:23:39;;;;;;;18.67;12.07;;;6.60;99.90;;;;;;5120433;28;20431;-89
2021/10/14 03:26:06;;;;;;;15.43;12.03;;;6.70;99.90;;;;;;5121449;28;20482;-89
2021/10/14 03:28:33;;;;;;;13.50;11.83;;;6.60;99.90;;;;;;5120590;28;20433;-88
2021/10/14 03:31:00;;;;;;;17.10;10.80;;;6.60;99.90;;;;;;5120718;28;20443;-89
2021/10/14 03:33:27;;;;;;;15.30;11.87;;;6.60;99.90;;;;;;5118489;28;20474;-89
2021/10/14 03:35:56;;;;;;;15.77;11.67;;;6.50;99.90;;;;;;5101598;28;20511;-89
2021/10/14 03:38:27;;;;;;;18.17;14.13;;;6.50;99.90;;;;;;5119086;28;20530;-89
2021/10/14 03:40:54;;;;;;;14.70;12.47;;;6.40;99.90;;;;;;5120320;28;20454;-90
2021/10/14 03:43:21;;;;;;;18.47;12.47;;;6.40;99.90;;;;;;5120139;28;20491;-90
2021/10/14 03:45:48;;;;;;;14.10;12.43;;;6.40;99.90;;;;;;5117423;28;20522;-90
2021/10/14 03:48:15;;;;;;;17.53;12.43;;;6.40;99.90;;;;;;5100937;28;20453;-90
2021/10/14 03:50:42;;;;;;;13.70;12.00;;;6.40;99.90;;;;;;5099606;28;20455;-91
2021/10/14 03:53:11;;;;;;;14.00;12.50;;;6.30;99.90;;;;;;5098787;28;20498;-89
2021/10/14 03:55:38;;;;;;;13.90;11.90;;;6.30;99.90;;;;;;5098046;28;20550;-90
2021/10/14 03:58:09;;;;;;;14.27;11.93;;;6.30;99.90;;;;;;5098162;28;20434;-91
2021/10/14 04:00:38;;;;;;;14.70;12.33;;;6.20;99.90;;;;;;5097957;28;20557;-89
2021/10/14 04:03:05;;;;;;;12.23;11.03;;;6.20;99.90;;;;;;5098344;28;20443;-90
2021/10/14 04:06:15;;;;;;;16.87;12.70;;;6.20;99.90;;;;;;5097954;28;20438;-90
2021/10/14 04:12:02;;;;;;;13.77;11.20;;;6.30;99.90;;;;;;5092804;28;20431;-90
2021/10/14 04:14:57;;;;;;;;;;;;;;;;;;;;;
2021/10/14 04:17:41;;;;;;;12.23;10.77;;;6.20;99.90;;;;;;5105027;28;20800;-90
2021/10/14 04:20:45;;;;;;;12.00;10.53;;;6.20;99.90;;;;;;5112011;28;20530;-90
2021/10/14 04:23:49;;;;;;;11.40;10.30;;;6.30;99.90;;;;;;5111577;28;20443;-88
2021/10/14 04:26:38;;;;;;;11.20;10.03;;;6.30;99.90;;;;;;5102078;28;20453;-90
2021/10/14 04:29:14;;;;;;;10.13;9.13;;;6.30;99.90;;;;;;5096326;28;20501;-90
2021/10/14 04:31:45;;;;;;;12.60;9.63;;;6.40;99.90;;;;;;5096811;28;20492;-90
2021/10/14 04:34:36;;;;;;;14.03;9.63;;;6.40;99.90;;;;;;5095456;28;20469;-90
2021/10/14 04:37:31;;;;;;;12.33;9.33;;;6.50;99.90;;;;;;5096236;28;20415;-90
2021/10/14 04:40:05;;;;;;;10.70;9.60;;;6.50;99.90;;;;;;5104842;28;20447;-89
2021/10/14 04:42:57;;;;;;;11.50;9.30;;;6.50;99.90;;;;;;5106588;28;20487;-90
2021/10/14 04:45:24;;;;;;;13.73;9.87;;;6.40;99.90;;;;;;5103021;28;20442;-90
2021/10/14 04:47:51;;;;;;;11.87;9.00;;;6.50;99.90;;;;;;5101976;28;20544;-90
2021/10/14 04:50:18;;;;;;;10.63;8.97;;;6.50;99.90;;;;;;5096491;28;20455;-91
2021/10/14 04:52:45;;;;;;;10.33;9.20;;;6.50;99.90;;;;;;5098708;28;20469;-91
2021/10/14 04:55:11;;;;;;;9.13;8.13;;;6.50;99.90;;;;;;5100274;28;20439;-90
2021/10/14 04:57:38;;;;;;;16.07;10.90;;;6.50;99.90;;;;;;5097370;28;20451;-90
2021/10/14 05:00:23;;;;;;;14.13;11.30;;;6.50;99.90;;;;;;5101518;28;20534;-90
2021/10/14 05:02:50;;;;;;;15.30;11.30;;;6.50;99.90;;;;;;5095031;28;20512;-90
2021/10/14 05:05:17;;;;;;;12.10;10.83;;;6.60;99.90;;;;;;5090842;28;20443;-91
2021/10/14 05:07:44;;;;;;;14.73;10.43;;;6.60;99.90;;;;;;5096573;28;20449;-90
2021/10/14 05:10:10;;;;;;;13.90;11.37;;;6.70;99.90;;;;;;5107238;28;20450;-89
2021/10/14 05:12:37;;;;;;;14.30;9.90;;;6.70;99.90;;;;;;5109249;28;20435;-90
2021/10/14 05:15:06;;;;;;;15.07;11.50;;;6.70;99.90;;;;;;5101031;28;20815;-90
2021/10/14 05:17:35;;;;;;;14.63;11.00;;;6.80;99.90;;;;;;5096070;28;20500;-90
2021/10/14 05:20:02;;;;;;;10.13;8.77;;;6.80;99.90;;;;;;5095650;28;20497;-90
2021/10/14 05:22:29;;;;;;;18.70;10.97;;;6.90;99.90;;;;;;5106309;28;20429;-90
2021/10/14 05:25:05;;;;;;;15.57;11.07;;;6.90;99.90;;;;;;5114769;28;20426;-89
2021/10/14 05:27:32;;;;;;;12.20;10.93;;;6.90;99.90;;;;;;5100015;28;20439;-90
2021/10/14 05:29:58;;;;;;;13.43;8.37;;;7.00;99.90;;;;;;5101406;28;20959;-89
2021/10/14 05:32:25;;;;;;;8.87;6.70;;;7.00;99.90;;;;;;5098392;28;20443;-91
2021/10/14 05:34:53;;;;;;;9.37;7.70;;;7.00;99.90;;;;;;5097546;28;21033;-86
2021/10/14 05:37:20;;;;;;;10.00;8.60;;;7.00;99.90;;;;;;5097332;28;20442;-90
2021/10/14 05:39:47;;;;;;;13.87;7.53;;;7.00;99.90;;;;;;5095455;28;20475;-89
2021/10/14 05:42:14;;;;;;;10.50;7.40;;;7.00;99.90;;;;;;5096237;28;20868;-89
2021/10/14 05:44:41;;;;;;;13.23;8.80;;;7.00;99.90;;;;;;5098367;28;20454;-89
2021/10/14 05:47:08;;;;;;;11.50;8.37;;;7.10;99.90;;;;;;5096541;28;20453;-90
2021/10/14 05:49:34;;;;;;;9.10;8.17;;;7.10;99.90;;;;;;5111608;28;20462;-89
2021/10/14 05:52:03;;;;;;;13.00;8.10;;;7.10;99.90;;;;;;5109276;28;20506;-89
2021/10/14 05:54:30;;;;;;;10.20;7.30;;;7.10;99.90;;;;;;5105684;28;20473;-90
2021/10/14 05:56:58;;;;;;;11.87;8.37;;;7.10;99.90;;;;;;5109225;28;20882;-88
2021/10/14 05:59:26;;;;;;;8.90;7.60;;;7.10;99.90;;;;;;5106413;28;20443;-90
2021/10/14 06:01:53;;;;;;;11.50;8.70;;;7.20;99.90;;;;;;5091540;28;20439;-89
2021/10/14 06:04:20;;;;;;;14.17;9.27;;;7.20;99.90;;;;;;5094537;28;20430;-89
2021/10/14 06:06:47;;;;;;;12.50;9.50;;;7.10;99.90;;;;;;5095373;28;20450;-90
2021/10/14 06:09:15;;;;;;;19.53;12.53;;;7.20;99.90;;;;;;5095126;28;20458;-89
2021/10/14 06:11:43;;;;;;;11.23;8.10;;;7.20;99.90;;;;;;5098583;28;20541;-89
2021/10/14 06:14:10;;;;;;;10.80;8.43;;;7.20;99.90;;;;;;5093255;28;20478;-88
2021/10/14 06:16:37;;;;;;;14.23;7.60;;;7.20;99.90;;;;;;5105366;28;20431;-89
2021/10/14 06:19:04;;;;;;;11.03;8.20;;;7.20;99.90;;;;;;5101097;28;20854;-89
2021/10/14 06:21:31;;;;;;;9.27;8.37;;;7.30;99.90;;;;;;5098834;28;20419;-89
2021/10/14 06:23:57;;;;;;;10.40;8.27;;;7.40;99.90;;;;;;5111766;28;20518;-89
2021/10/14 06:26:26;;;;;;;10.13;7.70;;;7.50;99.90;;;;;;5110230;28;20435;-89
2021/10/14 06:28:52;;;;;;;10.03;8.00;;;7.50;99.90;;;;;;5100987;28;20436;-89
2021/10/14 06:31:20;;;;;;;8.73;7.60;;;7.60;99.90;;;;;;5098210;28;20446;-90
2021/10/14 06:33:47;;;;;;;10.33;7.30;;;7.60;99.90;;;;;;5110445;28;20521;-88
2021/10/14 06:36:14;;;;;;;8.00;6.93;;;7.70;99.90;;;;;;5099317;28;20846;-90
2021/10/14 06:38:41;;;;;;;8.97;7.33;;;7.70;99.90;;;;;;5098421;28;20430;-90
2021/10/14 06:41:08;;;;;;;12.67;7.67;;;7.80;99.90;;;;;;5097987;28;20450;-90
2021/10/14 06:43:36;;;;;;;8.97;7.40;;;7.90;99.90;;;;;;5098500;28;20942;-90
2021/10/14 06:46:03;;;;;;;10.90;8.43;;;7.90;99.90;;;;;;5097907;28;20431;-89
2021/10/14 06:48:30;;;;;;;11.23;8.40;;;7.90;99.90;;;;;;5097638;28;21014;-89
2021/10/14 06:50:58;;;;;;;10.40;9.30;;;7.90;99.90;;;;;;5097747;28;20508;-89
2021/10/14 06:53:26;;;;;;;16.50;7.80;;;7.90;99.90;;;;;;5097588;28;20541;-89
2021/10/14 06:55:52;;;;;;;10.50;8.70;;;7.80;99.90;;;;;;5097529;28;20518;-90
2021/10/14 06:58:20;;;;;;;10.63;8.03;;;7.70;99.90;;;;;;5097514;28;20450;-89
2021/10/14 07:00:48;;;;;;;10.27;9.13;;;7.90;99.90;;;;;;5101883;28;20454;-89
2021/10/14 07:03:16;;;;;;;20.27;9.97;;;8.00;99.90;;;;;;5098397;28;20426;-89
2021/10/14 07:05:42;;;;;;;15.50;9.90;;;8.10;99.90;;;;;;5097450;28;20906;-89
2021/10/14 07:08:09;;;;;;;15.83;9.10;;;8.20;99.90;;;;;;5102892;28;20447;-90
2021/10/14 07:10:36;;;;;;;13.20;7.70;;;8.40;99.90;;;;;;5111891;28;20987;-90
2021/10/14 07:13:05;;;;;;;8.70;7.00;;;8.50;99.90;;;;;;5098309;28;20529;-90
2021/10/14 07:15:33;;;;;;;9.10;6.87;;;8.40;99.90;;;;;;5099212;28;20496;-79
2021/10/14 07:18:01;;;;;;;9.30;7.80;;;8.50;99.90;;;;;;5099305;28;20478;-79
2021/10/14 07:20:27;;;;;;;7.20;6.50;;;8.50;99.90;;;;;;5098688;28;20462;-79
2021/10/14 07:22:54;;;;;;;9.87;8.80;;;8.50;99.90;;;;;;5099711;28;20438;-80
2021/10/14 07:25:21;;;;;;;12.30;6.80;;;8.50;99.90;;;;;;5100306;28;20939;-85
2021/10/14 07:27:48;;;;;;;8.30;7.40;;;8.60;99.90;;;;;;5099963;28;20446;-79
2021/10/14 07:30:14;;;;;;;12.63;7.90;;;8.80;99.90;;;;;;5098759;28;20462;-79
2021/10/14 07:32:41;;;;;;;11.60;8.40;;;8.90;99.90;;;;;;5099110;28;20438;-79
2021/10/14 07:35:22;;;;;;;14.70;8.40;;;8.90;99.90;;;;;;5098370;28;20486;-89
2021/10/14 07:41:01;;;;;;;13.73;9.37;;;9.10;99.90;;;;;;5075566;28;20458;-89
2021/10/14 07:44:00;;;;;;;11.07;8.07;;;9.20;99.90;;;;;;5097914;28;20879;-90
2021/10/14 07:47:38;;;;;;;14.27;9.30;;;9.40;99.90;;;;;;5057604;28;20493;-89
2021/10/14 07:50:50;;;;;;;12.43;7.93;;;9.60;99.90;;;;;;5077837;28;20829;-89
2021/10/14 07:53:22;;;;;;;9.07;7.20;;;9.80;99.90;;;;;;5087794;28;20461;-88
2021/10/14 07:55:57;;;;;;;11.57;8.57;;;10.00;99.90;;;;;;5097239;28;20558;-88
2021/10/14 07:58:33;;;;;;;12.23;8.47;;;10.20;99.90;;;;;;5101072;28;20481;-91
2021/10/14 08:01:14;;;;;;;;;;;;;;;;;;;;;
2021/10/14 08:04:37;;;;;;;8.77;7.67;;;10.10;99.90;;;;;;5115150;28;20442;-90
2021/10/14 08:07:30;;;;;;;10.63;7.27;;;10.20;99.90;;;;;;5073300;28;20508;-88
2021/10/14 08:10:06;;;;;;;14.80;7.47;;;11.00;99.90;;;;;;4948009;29;20478;-87
2021/10/14 08:12:32;;;;;;;9.50;7.30;;;12.10;99.90;;;;;;4990127;28;20470;-87
2021/10/14 08:14:59;;;;;;;10.27;6.83;;;12.10;99.90;;;;;;4999614;28;20529;-87
2021/10/14 08:17:38;;;;;;;13.80;8.50;;;11.80;99.90;;;;;;5002661;28;20462;-86
2021/10/14 08:20:07;;;;;;;12.67;7.50;;;11.60;99.90;;;;;;5111769;28;20463;-87
2021/10/14 08:25:54;;;;;;;14.20;9.90;;;11.50;99.90;;;;;;5058396;28;20452;-87
2021/10/14 08:31:57;;;;;;;16.83;8.40;;;12.10;99.90;;;;;;4936357;28;20469;-87
2021/10/14 08:38:03;;;;;;;7.13;6.37;;;12.30;99.90;;;;;;5087135;28;20448;-91
2021/10/14 08:40:30;;;;;;;8.70;5.53;;;12.30;99.90;;;;;;5093134;28;20561;-86
2021/10/14 08:43:04;;;;;;;9.13;6.27;;;12.10;99.90;;;;;;5095383;28;20457;-89
2021/10/14 08:45:34;;;;;;;7.23;6.47;;;11.90;99.90;;;;;;5094845;28;20439;-87
2021/10/14 08:48:02;;;;;;;10.30;7.87;;;11.80;99.90;;;;;;5099791;28;20442;-87
2021/10/14 08:50:29;;;;;;;10.50;8.10;;;11.40;99.90;;;;;;5115332;28;20514;-89
2021/10/14 08:52:55;;;;;;;9.87;7.60;;;11.20;99.90;;;;;;5102815;28;20446;-87
2021/10/14 08:55:22;;;;;;;9.10;6.60;;;11.10;99.90;;;;;;5095627;28;20471;-89
2021/10/14 08:57:49;;;;;;;11.50;6.83;;;11.20;99.90;;;;;;5112381;28;20441;-87
2021/10/14 09:00:17;;;;;;;11.33;6.60;;;11.60;99.90;;;;;;5103667;28;20458;-87
2021/10/14 09:02:44;;;;;;;9.70;6.17;;;12.00;99.90;;;;;;5096214;28;21002;-88
2021/10/14 09:05:14;;;;;;;8.27;6.60;;;12.50;99.90;;;;;;5094504;28;20444;-88
2021/10/14 09:07:41;;;;;;;8.87;5.80;;;13.00;99.90;;;;;;5094000;28;21014;-88
2021/10/14 09:10:12;;;;;;;7.57;5.70;;;13.70;99.90;;;;;;5093895;28;20475;-87
2021/10/14 09:12:40;;;;;;;5.90;5.30;;;13.90;98.60;;;;;;5094127;28;20836;-87
2021/10/14 09:15:09;;;;;;;8.00;5.80;;;13.90;97.90;;;;;;5094731;28;20476;-87
2021/10/14 09:17:52;;;;;;;6.50;5.90;;;14.20;97.60;;;;;;5095840;28;20536;-88
2021/10/14 09:20:40;;;;;;;9.03;7.13;;;14.60;96.70;;;;;;5094046;28;20464;-88
2021/10/14 09:23:11;;;;;;;8.60;6.10;;;14.80;95.80;;;;;;5090207;28;20449;-88
2021/10/14 09:25:49;;;;;;;10.50;5.50;;;15.10;95.60;;;;;;5106318;28;20408;-88
2021/10/14 09:28:19;;;;;;;8.00;6.70;;;15.60;94.70;;;;;;5118098;28;20450;-87
2021/10/14 09:30:52;;;;;;;7.57;5.40;;;15.70;93.70;;;;;;5118589;28;20489;-87
2021/10/14 09:33:39;;;;;;;7.70;6.20;;;15.90;94.20;;;;;;5117310;28;20449;-88
2021/10/14 09:36:23;;;;;;;13.53;6.43;;;16.50;93.50;;;;;;5117637;28;20505;-87
2021/10/14 09:39:03;;;;;;;7.50;5.97;;;16.70;91.20;;;;;;5116751;28;20462;-88
2021/10/14 09:41:31;;;;;;;10.23;5.47;;;16.70;92.20;;;;;;5102357;28;20460;-89
2021/10/14 09:44:04;;;;;;;8.40;6.00;;;16.50;90.80;;;;;;5114475;28;20501;-86
2021/10/14 09:46:37;;;;;;;8.40;6.83;;;16.60;91.00;;;;;;5117714;28;20440;-85
2021/10/14 09:49:13;;;;;;;8.87;6.90;;;16.20;90.70;;;;;;5117311;28;20466;-86
2021/10/14 09:51:45;;;;;;;10.07;5.90;;;15.90;91.20;;;;;;5116504;28;20476;-86
2021/10/14 09:54:12;;;;;;;12.30;6.60;;;15.60;91.40;;;;;;5104385;28;20533;-87
2021/10/14 09:56:40;;;;;;;9.87;5.60;;;15.40;92.50;;;;;;5109185;28;20450;-88
2021/10/14 09:59:09;;;;;;;11.30;6.00;;;15.80;92.60;;;;;;5097580;28;20465;-87
2021/10/14 10:01:39;;;;;;;5.10;4.63;;;17.60;91.30;;;;;;5099007;28;20525;-87
2021/10/14 10:04:10;;;;;;;7.00;6.27;;;18.80;85.70;;;;;;5100636;28;20430;-87
2021/10/14 10:06:39;;;;;;;7.97;6.03;;;19.60;82.00;;;;;;5099447;28;20438;-87
2021/10/14 10:09:11;;;;;;;10.93;5.30;;;19.70;79.00;;;;;;5100567;28;20474;-87
2021/10/14 10:11:42;;;;;;;7.43;5.03;;;19.70;77.70;;;;;;5100750;28;20461;-88
2021/10/14 10:14:31;;;;;;;7.23;5.30;;;20.40;77.10;;;;;;5111566;28;20518;-87
2021/10/14 10:16:59;;;;;;;7.33;5.10;;;20.90;73.50;;;;;;5112818;28;20490;-87
2021/10/14 10:19:45;;;;;;;5.27;4.20;;;21.90;71.50;;;;;;5100748;28;20454;-87
2021/10/14 10:22:38;;;;;;;4.80;4.00;;;23.40;65.70;;;;;;5112595;28;20449;-89
2021/10/14 10:25:17;;;;;;;6.03;4.80;;;23.80;61.90;;;;;;5112612;28;20927;-89
2021/10/14 10:27:45;;;;;;;4.73;4.10;;;24.60;59.60;;;;;;5115536;28;20449;-89
2021/10/14 10:30:27;;;;;;;4.60;3.53;;;25.70;55.60;;;;;;5104484;28;20468;-88
2021/10/14 10:32:54;;;;;;;4.33;3.87;;;27.10;53.40;;;;;;5098448;28;20861;-88
2021/10/14 10:35:41;;;;;;;5.07;4.33;;;27.00;51.50;;;;;;5093520;28;20482;-89
2021/10/14 10:38:19;;;;;;;4.10;3.70;;;27.70;51.90;;;;;;5093033;28;20499;-89
2021/10/14 10:40:49;;;;;;;4.20;3.50;;;27.80;47.80;;;;;;5092152;28;20573;-88
2021/10/14 10:43:19;;;;;;;4.77;3.70;;;28.20;48.70;;;;;;5093233;28;20869;-89
2021/10/14 10:45:52;;;;;;;4.73;3.77;;;27.90;46.60;;;;;;5093654;28;20874;-89
2021/10/14 10:48:22;;;;;;;6.50;3.53;;;26.20;49.40;;;;;;5092597;28;20556;-89
2021/10/14 10:50:53;;;;;;;6.00;4.50;;;26.10;49.60;;;;;;5096289;28;20470;-89
2021/10/14 10:53:37;;;;;;;5.57;3.60;;;25.30;50.50;;;;;;5107598;22;21095;-89
2021/10/14 10:56:27;;;;;;;5.20;3.90;;;24.30;51.00;;;;;;5077809;28;20478;-89
2021/10/14 10:58:56;;;;;;;4.63;3.50;;;24.40;51.60;;;;;;5077986;28;20446;-89
2021/10/14 11:01:23;;;;;;;9.30;3.80;;;24.50;52.00;;;;;;5083037;28;20444;-89
2021/10/14 11:04:02;;;;;;;3.97;3.57;;;26.10;50.90;;;;;;5079098;28;20477;-89
2021/10/14 11:06:32;;;;;;;4.27;3.87;;;26.20;48.30;;;;;;5075385;28;20784;-89
2021/10/14 11:09:01;;;;;;;4.17;3.20;;;25.60;49.10;;;;;;5075496;28;20440;-89
2021/10/14 11:11:32;;;;;;;2.90;2.60;;;25.60;49.10;;;;;;5087834;28;20440;-87
2021/10/14 11:13:59;;;;;;;2.70;2.50;;;27.90;46.30;;;;;;5093246;28;20447;-88
2021/10/14 11:16:29;;;;;;;5.43;2.50;;;29.60;43.10;;;;;;5090473;28;20522;-88
2021/10/14 11:19:02;;;;;;;3.20;2.90;;;29.50;42.20;;;;;;5098061;28;20432;-88
2021/10/14 11:21:33;;;;;;;4.50;3.10;;;29.50;41.80;;;;;;5086821;28;20829;-89
2021/10/14 11:24:10;;;;;;;4.70;2.90;;;29.90;41.30;;;;;;5079341;28;20478;-89
2021/10/14 11:26:38;;;;;;;3.60;2.93;;;30.60;41.20;;;;;;5076593;28;20447;-88
2021/10/14 11:29:07;;;;;;;7.93;4.67;;;30.80;40.30;;;;;;5075537;28;20465;-88
2021/10/14 11:31:37;;;;;;;5.00;4.00;;;30.20;40.60;;;;;;5076667;28;20470;-88
2021/10/14 11:34:15;;;;;;;3.83;3.43;;;29.00;41.70;;;;;;5077264;28;20451;-87
2021/10/14 11:36:52;;;;;;;3.90;3.50;;;29.00;41.90;;;;;;5078868;28;20501;-88
2021/10/14 11:39:22;;;;;;;7.53;4.20;;;28.60;43.10;;;;;;5076986;28;20453;-88
2021/10/14 11:41:56;;;;;;;9.30;5.30;;;27.90;44.20;;;;;;5080342;28;20493;-83
2021/10/14 11:44:24;;;;;;;5.30;4.10;;;27.60;44.70;;;;;;5077294;28;20501;-83
2021/10/14 11:46:51;;;;;;;5.37;4.17;;;26.80;45.80;;;;;;5077831;28;20456;-83
2021/10/14 11:49:18;;;;;;;7.73;6.53;;;25.30;47.70;;;;;;5077606;28;20472;-83
2021/10/14 11:51:48;;;;;;;3.77;3.40;;;23.80;49.10;;;;;;5077877;28;20474;-83
2021/10/14 11:54:17;;;;;;;5.73;3.60;;;24.10;49.90;;;;;;5077804;28;20516;-83
2021/10/14 11:56:45;;;;;;;4.80;4.40;;;22.90;51.70;;;;;;5078012;28;20485;-82
2021/10/14 11:59:13;;;;;;;6.17;3.97;;;22.20;53.20;;;;;;5076710;28;20445;-86
2021/10/14 12:01:53;;;;;;;4.50;3.10;;;22.00;54.00;;;;;;5076177;28;20468;-88
2021/10/14 12:04:24;;;;;;;3.80;3.20;;;21.90;54.60;;;;;;5081481;28;20862;-88
2021/10/14 12:06:54;;;;;;;3.77;3.23;;;22.40;54.80;;;;;;5085486;28;20449;-88
2021/10/14 12:09:21;;;;;;;2.80;2.50;;;22.30;54.20;;;;;;5077571;28;20431;-87
2021/10/14 12:11:49;;;;;;;4.30;3.30;;;22.20;54.20;;;;;;5076374;28;20465;-88
2021/10/14 12:14:24;;;;;;;5.07;3.53;;;22.00;55.10;;;;;;5083792;28;20516;-88
2021/10/14 12:17:09;;;;;;;5.80;3.90;;;21.80;56.20;;;;;;5091910;28;20531;-88
2021/10/14 12:19:42;;;;;;;5.93;3.60;;;21.50;56.80;;;;;;5096681;28;20448;-88
2021/10/14 12:22:30;;;;;;;5.80;3.80;;;21.40;57.10;;;;;;5088963;28;20459;-88
2021/10/14 12:25:20;;;;;;;4.50;3.23;;;21.30;57.20;;;;;;5076316;28;20472;-88
2021/10/14 12:27:58;;;;;;;4.87;3.37;;;21.30;57.30;;;;;;5049785;28;20448;-88
2021/10/14 12:30:45;;;;;;;3.70;2.90;;;21.30;58.00;;;;;;5093302;28;20449;-88
2021/10/14 12:33:23;;;;;;;5.20;2.57;;;21.40;57.90;;;;;;5087519;28;20483;-88
2021/10/14 12:36:06;;;;;;;4.77;3.23;;;21.60;57.90;;;;;;5089335;28;20963;-87
2021/10/14 12:38:47;;;;;;;4.60;2.77;;;21.10;57.80;;;;;;5076018;28;20572;-88
2021/10/14 12:41:27;;;;;;;3.47;3.07;;;21.10;58.80;;;;;;5076198;28;20463;-88
2021/10/14 12:44:13;;;;;;;4.57;3.07;;;21.10;58.10;;;;;;5075644;28;20481;-88
2021/10/14 12:46:56;;;;;;;3.33;3.10;;;21.20;58.50;;;;;;5075683;28;20457;-88
2021/10/14 12:49:33;;;;;;;3.73;3.17;;;21.20;58.40;;;;;;5075946;28;20458;-88
2021/10/14 12:52:17;;;;;;;6.07;3.17;;;21.20;58.20;;;;;;5096667;28;20482;-88
2021/10/14 12:54:46;;;;;;;5.60;3.53;;;20.80;58.40;;;;;;5082882;28;20815;-90
2021/10/14 12:57:13;;;;;;;4.63;3.03;;;20.80;59.10;;;;;;5091401;28;20463;-88
2021/10/14 12:59:43;;;;;;;4.50;2.60;;;20.80;59.40;;;;;;5068481;28;20537;-88
2021/10/14 13:02:13;;;;;;;6.40;3.17;;;20.70;59.30;;;;;;5065881;28;20476;-88
2021/10/14 13:04:40;;;;;;;5.20;2.73;;;21.10;60.20;;;;;;5095522;28;20434;-89
2021/10/14 13:07:07;;;;;;;4.43;2.93;;;20.80;59.20;;;;;;5078517;28;20459;-88
2021/10/14 13:13:00;;;;;;;3.40;2.90;;;20.80;59.80;;;;;;5047094;28;20535;-89
2021/10/14 13:15:27;;;;;;;7.30;2.80;;;20.20;61.60;;;;;;5082295;28;20464;-89
2021/10/14 13:24:43;;;;;;;4.30;3.10;;;20.40;61.40;;;;;;5054006;28;20439;-92
2021/10/14 13:27:11;;;;;;;3.30;2.17;;;20.40;61.30;;;;;;5081529;28;20438;-88
2021/10/14 13:30:11;;;;;;;3.10;2.47;;;20.40;61.60;;;;;;5077322;28;20443;-89
2021/10/14 13:32:40;;;;;;;4.60;2.67;;;20.30;61.60;;;;;;5054130;28;20478;-90
2021/10/14 13:35:29;;;;;;;3.67;2.03;;;20.10;61.70;;;;;;5082315;28;20493;-92
2021/10/14 13:37:56;;;;;;;3.17;2.20;;;20.10;62.20;;;;;;5089546;28;20446;-90
2021/10/14 13:43:35;;;;;;;4.20;2.60;;;20.30;62.10;;;;;;5118727;22;20490;-89